Latest Weather Observations for Cape Wessel

IDD60801

Issued at 3:01 pm CST Saturday 31 January 2015 (issued every 30 minutes, with the page automatically refreshed every 10 minutes)

About weather observations | Map of weather stations | Latest weather observations for NT | Other Formats
Station Details ID: 200786 Name: CAPE WESSEL Lat: -11.00 Lon: 136.76 Height: 18.0 m
Data from the previous 72 hours. | See also: Recent months for locations in Northern Territory
Date/Time
CST
Temp
°C
App
Temp
°C
Dew
Point
Rel
Hum
%
Delta-T
°C
Wind Press
QNH
hPa
Press
MSL
hPa
Rain
since 9 am
mm
Dir
 
Spd
km/h
Gust
km/h
Spd
kts
Gust
kts
31/03:00pm 32.5 34.1 25.1 65 5.2 WNW 26 32 14 17 1006.3 1006.2 0.0
31/02:30pm 32.7 34.3 25.2 64 5.3 WNW 26 32 14 17 1006.6 - 0.0
31/02:00pm 33.2 35.7 26.5 68 4.8 WNW 26 35 14 19 1006.8 - 0.0
31/01:30pm 32.7 34.2 25.5 66 5.1 WNW 28 33 15 18 1007.0 - 0.0
31/01:00pm 32.9 35.2 26.2 68 4.8 WNW 26 32 14 17 1007.4 - 0.0
31/12:30pm 32.6 33.8 25.7 67 4.9 WNW 30 35 16 19 1007.8 - 0.0
31/12:00pm 32.4 33.9 25.5 67 4.9 WNW 28 35 15 19 1007.9 1007.8 0.0
31/11:30am 32.2 32.9 25.5 67 4.8 WNW 32 37 17 20 1008.3 - 0.0
31/11:00am 31.6 32.6 24.7 67 4.8 WNW 28 35 15 19 1008.4 - 0.0
31/10:30am 31.8 33.7 25.6 69 4.4 W 26 32 14 17 1008.5 - 0.0
31/10:00am 31.1 31.6 25.2 71 4.2 W 32 37 17 20 1008.4 - 0.0
31/09:30am 31.0 32.1 25.6 73 3.8 W 30 37 16 20 1008.3 - 0.0
31/09:00am 30.3 30.9 25.4 75 3.5 W 32 39 17 21 1008.3 1008.2 0.0
31/08:30am 29.9 30.8 25.2 76 3.3 W 30 33 16 18 1008.4 - 0.0
31/08:00am 29.4 29.5 24.9 77 3.2 W 33 39 18 21 1008.4 - 0.0
31/07:30am 28.8 28.7 24.6 78 2.9 W 33 39 18 21 1008.3 - 0.0
31/07:00am 28.7 28.4 24.9 80 2.7 W 35 44 19 24 1007.8 - 0.0
31/06:30am 28.5 28.6 24.9 81 2.5 W 33 39 18 21 1007.5 - 0.0
31/06:00am 28.4 28.7 24.8 81 2.5 W 32 37 17 20 1007.2 1007.1 0.0
31/05:30am 28.4 28.7 24.8 81 2.5 W 32 35 17 19 1007.0 - 0.0
31/05:00am 28.3 28.5 24.7 81 2.5 WNW 32 37 17 20 1007.0 - 0.0
31/04:30am 28.4 29.0 24.8 81 2.5 WNW 30 35 16 19 1007.0 - 0.0
31/04:00am 28.4 28.7 24.8 81 2.5 W 32 39 17 21 1006.9 - 0.0
31/03:30am 28.4 29.4 24.8 81 2.5 W 28 33 15 18 1006.9 - 0.0
31/03:00am 28.5 28.7 24.7 80 2.7 W 32 37 17 20 1007.1 1007.0 0.0
31/02:30am 28.6 29.2 24.8 80 2.7 W 30 35 16 19 1007.4 - 0.0
31/02:00am 28.6 29.0 25.0 81 2.5 W 32 37 17 20 1007.7 - 0.0
31/01:30am 28.7 29.9 25.1 81 2.5 W 28 35 15 19 1007.9 - 0.0
31/01:00am 28.6 29.9 24.6 79 2.8 W 26 32 14 17 1008.1 - 0.0
31/12:30am 28.7 28.9 24.7 79 2.8 W 32 39 17 21 1008.4 - 0.0
31/12:00am 28.8 29.0 25.0 80 2.7 W 33 39 18 21 1008.6 1008.5 0.0
 
Date/Time
CST
Temp
°C
App
Temp
°C
Dew
Point
Rel
Hum
%
Delta-T
°C
Wind Press
QNH
hPa
Press
MSL
hPa
Rain
since 9 am
mm
Dir
 
Spd
km/h
Gust
km/h
Spd
kts
Gust
kts
30/11:30pm 28.9 29.7 25.1 80 2.7 W 30 35 16 19 1008.8 - 0.0
30/11:00pm 28.9 29.3 25.1 80 2.7 W 32 35 17 19 1008.9 - 0.0
30/10:30pm 28.8 29.7 25.2 81 2.5 W 30 33 16 18 1008.6 - 0.0
30/10:00pm 28.7 29.4 24.9 80 2.7 WSW 30 35 16 19 1008.3 - 0.0
30/09:30pm 28.7 28.9 24.7 79 2.8 W 32 37 17 20 1008.3 - 0.0
30/09:00pm 28.7 28.7 24.7 79 2.8 W 33 41 18 22 1007.9 1007.8 0.0
30/08:30pm 28.7 29.6 25.3 82 2.4 W 30 35 16 19 1007.9 - 0.0
30/08:00pm 28.7 28.7 24.7 79 2.8 W 33 41 18 22 1007.8 - 0.0
30/07:30pm 28.5 28.6 24.5 79 2.8 W 32 39 17 21 1007.4 - 0.0
30/07:00pm 28.3 27.7 24.3 79 2.8 WNW 35 41 19 22 1007.4 - 0.0
30/06:30pm 28.9 29.0 24.9 79 2.8 WNW 33 44 18 24 1007.0 - 0.0
30/06:00pm 29.7 30.3 24.8 75 3.4 WNW 30 37 16 20 1006.5 1006.4 0.0
30/05:30pm 29.9 30.8 25.2 76 3.3 WNW 30 35 16 19 1006.4 - 0.0
30/05:00pm 30.3 30.9 24.7 72 3.9 WNW 30 35 16 19 1006.1 - 0.0
30/04:30pm 30.9 31.3 25.0 71 4.2 WNW 32 39 17 21 1005.7 - 0.0
30/04:00pm 31.9 32.7 25.0 67 4.9 WNW 30 37 16 20 1005.7 - 0.0
30/03:30pm 32.2 33.1 25.3 67 4.9 W 30 37 16 20 1005.9 - 0.0
30/03:00pm 32.5 34.7 26.1 69 4.6 WNW 26 33 14 18 1006.1 1006.0 0.0
30/02:30pm 32.6 34.0 25.4 66 5.1 WNW 28 33 15 18 1006.2 - 0.0
30/02:00pm 32.4 33.6 25.7 68 4.8 W 30 35 16 19 1006.5 - 0.0
30/01:30pm 31.7 32.5 25.1 68 4.7 W 30 35 16 19 1006.9 - 0.0
30/01:00pm 32.5 34.0 26.1 69 4.6 W 30 35 16 19 1007.0 - 0.0
30/12:30pm 32.4 34.4 25.7 68 4.8 W 26 32 14 17 1007.3 - 0.0
30/12:00pm 32.9 35.2 26.2 68 4.8 WNW 26 32 14 17 1007.8 1007.7 0.0
30/11:30am 32.3 33.9 25.1 65 5.1 WNW 26 30 14 16 1008.2 - 0.0
30/11:00am 31.6 32.5 25.2 69 4.5 W 30 35 16 19 1008.2 - 0.0
30/10:30am 31.5 33.3 25.4 70 4.3 WNW 26 33 14 18 1008.4 - 0.0
30/10:00am 31.1 32.6 25.0 70 4.3 W 26 33 14 18 1008.7 - 0.0
30/09:30am 30.8 31.9 24.9 71 4.1 W 28 32 15 17 1008.8 - 0.0
30/09:00am 30.1 31.2 24.9 73 3.7 W 28 32 15 17 1008.4 1008.3 0.2
30/08:30am 30.2 31.5 25.3 75 3.5 WNW 28 33 15 18 1008.3 - 0.2
30/08:00am 29.6 30.8 25.1 77 3.2 WNW 28 33 15 18 1008.2 - 0.2
30/07:30am 28.8 29.8 24.8 79 2.8 WNW 28 35 15 19 1008.0 - 0.2
30/07:00am 28.4 29.8 24.8 81 2.5 WNW 26 32 14 17 1007.7 - 0.2
30/06:30am 28.0 28.9 24.6 82 2.4 WNW 28 33 15 18 1007.6 - 0.2
30/06:00am 27.9 28.7 24.5 82 2.4 WNW 28 33 15 18 1007.4 1007.3 0.2
30/05:30am 27.8 28.8 24.2 81 2.5 WNW 26 33 14 18 1007.1 - 0.2
30/05:00am 28.0 29.1 24.4 81 2.5 WNW 26 33 14 18 1006.8 - 0.2
30/04:30am 28.1 29.7 25.1 84 2.1 WNW 26 33 14 18 1006.5 - 0.2
30/04:00am 28.1 28.9 25.1 84 2.1 WNW 30 35 16 19 1006.4 - 0.2
30/03:30am 28.0 29.9 25.0 84 2.1 WNW 24 30 13 16 1006.2 - 0.2
30/03:00am 28.1 29.4 25.3 85 2.0 WNW 28 35 15 19 1006.2 1006.1 0.2
30/02:30am 28.1 29.3 25.1 84 2.1 WNW 28 35 15 19 1006.1 - 0.2
30/02:00am 28.2 29.0 25.0 83 2.2 WNW 30 37 16 20 1006.2 - 0.2
30/01:30am 28.3 29.5 25.1 83 2.2 WNW 28 33 15 18 1006.6 - 0.2
30/01:00am 28.3 29.1 25.1 83 2.2 WNW 30 35 16 19 1007.0 - 0.2
30/12:30am 28.3 30.0 25.3 84 2.1 WNW 26 33 14 18 1007.2 - 0.2
30/12:00am 28.3 30.1 25.5 85 2.0 WNW 26 33 14 18 1007.5 1007.4 0.2
 
Date/Time
CST
Temp
°C
App
Temp
°C
Dew
Point
Rel
Hum
%
Delta-T
°C
Wind Press
QNH
hPa
Press
MSL
hPa
Rain
since 9 am
mm
Dir
 
Spd
km/h
Gust
km/h
Spd
kts
Gust
kts
29/11:30pm 28.4 30.2 25.4 84 2.1 WNW 26 32 14 17 1007.6 - 0.2
29/11:00pm 28.5 31.0 25.3 83 2.3 WNW 22 28 12 15 1007.5 - 0.2
29/10:30pm 28.5 30.0 24.9 81 2.5 WNW 26 30 14 16 1007.5 - 0.2
29/10:00pm 28.5 30.3 24.9 81 2.5 WNW 24 30 13 16 1007.5 - 0.2
29/09:30pm 28.4 30.2 24.8 81 2.5 WNW 24 30 13 16 1007.6 - 0.2
29/09:00pm 28.5 30.3 24.9 81 2.5 WNW 24 30 13 16 1007.5 1007.4 0.2
29/08:30pm 28.5 30.3 24.9 81 2.5 WNW 24 32 13 17 1007.2 - 0.2
29/08:00pm 28.4 29.5 24.4 79 2.8 WNW 26 32 14 17 1006.9 - 0.2
29/07:30pm 28.5 30.5 25.1 82 2.4 WNW 24 30 13 16 1006.9 - 0.2
29/07:00pm 28.4 30.4 24.6 80 2.6 NW 22 28 12 15 1006.6 - 0.2
29/06:30pm 28.8 30.5 24.6 78 2.9 NW 24 28 13 15 1006.4 - 0.2
29/06:00pm 29.1 31.0 24.4 76 3.3 WNW 22 28 12 15 1006.0 1005.9 0.2
29/05:30pm 30.1 32.2 24.7 73 3.8 NW 22 28 12 15 1005.5 - 0.2
29/05:00pm 30.5 32.7 24.9 72 3.9 WNW 22 28 12 15 1005.2 - 0.2
29/04:30pm 30.3 32.8 24.4 70 4.1 WNW 19 24 10 13 1005.0 - 0.2
29/04:00pm 30.8 33.2 23.7 66 4.9 WNW 17 20 9 11 1004.6 - 0.2
29/03:30pm 31.8 34.4 23.9 63 5.5 W 17 20 9 11 1004.4 - 0.2
29/03:00pm 31.5 34.5 24.6 67 4.9 W 17 20 9 11 1004.6 1004.5 0.2
29/02:30pm 31.6 34.1 24.5 66 5.0 W 19 22 10 12 1004.9 - 0.2
29/02:00pm 31.5 33.5 24.6 67 4.8 WNW 22 26 12 14 1005.0 - 0.2
29/01:30pm 31.0 33.3 25.1 71 4.2 W 22 26 12 14 1005.6 - 0.2
29/01:00pm 30.6 33.3 25.0 72 3.9 W 20 24 11 13 1005.9 - 0.2
29/12:30pm 30.8 33.4 24.9 71 4.1 W 20 24 11 13 1006.4 - 0.2
29/12:00pm 31.1 34.0 25.4 71 4.0 W 20 24 11 13 1006.6 1006.5 0.2
29/11:30am 30.6 33.4 25.2 73 3.8 W 20 24 11 13 1007.0 - 0.2
29/11:00am 30.1 32.7 24.9 73 3.7 W 20 26 11 14 1007.2 - 0.2
29/10:30am 29.9 32.8 25.4 77 3.2 W 20 26 11 14 1007.4 - 0.2
29/10:00am 29.6 32.2 24.9 76 3.3 WNW 20 24 11 13 1007.5 - 0.2
29/09:30am 29.4 31.9 24.7 76 3.3 W 20 24 11 13 1007.4 - 0.2
29/09:00am 29.5 32.0 24.4 74 3.6 W 19 24 10 13 1006.8 1006.7 0.2
29/08:30am 29.1 30.7 22.1 66 4.7 WSW 17 20 9 11 1006.4 - 0.2
29/08:00am 28.3 30.4 22.5 71 3.9 WSW 15 19 8 10 1006.2 - 0.2
29/07:30am 27.7 30.1 22.9 75 3.3 WSW 15 19 8 10 1006.0 - 0.2
29/07:00am 27.3 29.1 22.5 75 3.2 WSW 17 20 9 11 1005.4 - 0.2
29/06:30am 27.4 28.0 22.8 76 3.1 WSW 24 30 13 16 1005.1 - 0.2
29/06:00am 26.8 26.8 22.4 77 3.0 WSW 26 32 14 17 1004.2 1004.1 0.2
29/05:30am 26.8 27.7 23.9 84 2.0 W 26 35 14 19 1003.9 - 0.2
29/05:00am 26.9 28.0 24.4 86 1.7 W 26 32 14 17 1003.8 - 0.2
29/04:30am 26.8 27.7 23.9 84 2.0 WSW 26 35 14 19 1003.8 - 0.2
29/04:00am 26.9 26.8 23.6 82 2.3 WSW 30 35 16 19 1003.5 - 0.2
29/03:30am 27.3 27.3 24.7 86 1.8 WSW 33 44 18 24 1003.5 - 0.2
29/03:00am 27.3 26.4 24.4 84 2.0 W 37 46 20 25 1003.7 1003.6 0.2
29/02:30am 27.9 26.2 25.1 85 2.0 W 43 50 23 27 1003.4 - 0.2
29/02:00am 27.2 28.5 25.2 89 1.4 WNW 28 35 15 19 1003.9 - 0.2
29/01:30am 26.8 27.1 24.8 89 1.4 WNW 32 37 17 20 1004.4 - 0.2
29/01:00am 26.4 26.1 23.9 86 1.7 W 32 41 17 22 1004.4 - 0.2
29/12:30am 27.1 27.1 24.4 85 1.9 W 32 39 17 21 1005.2 - 0.0
29/12:00am 28.4 28.9 25.2 83 2.3 W 32 37 17 20 1005.6 1005.5 0.0
 
Date/Time
CST
Temp
°C
App
Temp
°C
Dew
Point
Rel
Hum
%
Delta-T
°C
Wind Press
QNH
hPa
Press
MSL
hPa
Rain
since 9 am
mm
Dir
 
Spd
km/h
Gust
km/h
Spd
kts
Gust
kts
28/11:30pm 28.4 29.7 25.2 83 2.2 W 28 32 15 17 1006.1 - 0.0
28/11:00pm 28.2 29.5 25.2 84 2.1 W 28 33 15 18 1006.2 - 0.0
28/10:30pm 27.9 28.7 24.5 82 2.4 WNW 28 35 15 19 1006.2 - 0.0
28/10:00pm 28.1 28.7 24.7 82 2.4 WNW 30 35 16 19 1005.8 - 0.0
28/09:30pm 28.1 29.3 24.5 81 2.5 WNW 26 32 14 17 1005.3 - 0.0
28/09:00pm 28.0 29.4 24.2 80 2.6 WNW 24 30 13 16 1005.1 1005.0 0.0
28/08:30pm 27.8 29.1 24.6 83 2.2 WNW 26 32 14 17 1005.3 - 0.0
28/08:00pm 27.8 29.8 24.6 83 2.2 WNW 22 28 12 15 1004.6 - 0.0
28/07:30pm 27.8 30.3 24.8 84 2.1 WNW 20 26 11 14 1004.2 - 0.0
28/07:00pm 27.7 29.8 24.7 84 2.1 WNW 22 26 12 14 1004.1 - 0.0
28/06:30pm 28.0 30.0 25.2 85 2.0 WNW 24 30 13 16 1004.0 - 0.0
28/06:00pm 28.0 30.2 24.8 83 2.2 NW 22 28 12 15 1003.5 1003.4 0.0
28/05:30pm 27.8 28.3 24.6 83 2.2 NNW 30 39 16 21 1003.0 - 0.0
28/05:00pm 28.5 30.7 24.9 81 2.5 WNW 22 26 12 14 1002.9 - 0.0
28/04:30pm 28.9 31.9 25.3 81 2.5 WNW 19 24 10 13 1002.6 - 0.0
28/04:00pm 28.7 30.5 24.9 80 2.7 NW 24 32 13 17 1002.5 - 0.0
28/03:30pm 29.5 32.0 25.3 78 3.0 WNW 22 30 12 16 1002.6 - 0.0

Other Formats:

Comma delimited format used in spreadsheet applications
http://www.bom.gov.au/fwo/IDD60801/IDD60801.94147.axf

JavaScript Object Notation format (JSON) in row-major order
http://www.bom.gov.au/fwo/IDD60801/IDD60801.94147.json